createdAt,value
2022-10-26T00:00:49.930Z,85.00
2022-10-26T00:03:16.548Z,85.46
2022-10-26T00:05:43.455Z,85.11
2022-10-26T00:08:10.603Z,84.92
2022-10-26T00:10:38.761Z,84.91
2022-10-26T00:13:08.924Z,85.07
2022-10-26T00:15:35.301Z,85.05
2022-10-26T00:18:01.608Z,84.75
2022-10-26T00:20:27.884Z,84.81
2022-10-26T00:22:54.234Z,84.29
2022-10-26T00:25:20.496Z,84.59
2022-10-26T00:27:47.134Z,84.03
2022-10-26T00:30:13.574Z,83.79
2022-10-26T00:35:21.165Z,84.46
2022-10-26T00:37:55.840Z,84.07
2022-10-26T00:40:26.721Z,84.14
2022-10-26T00:42:53.049Z,83.84
2022-10-26T00:45:22.633Z,84.34
2022-10-26T00:47:52.186Z,84.57
2022-10-26T00:50:24.736Z,84.87
2022-10-26T00:52:52.729Z,84.87
2022-10-26T00:55:22.613Z,84.77
2022-10-26T00:57:51.705Z,85.02
2022-10-26T01:00:18.417Z,84.92
2022-10-26T01:02:47.808Z,85.23
2022-10-26T01:05:17.110Z,85.00
2022-10-26T01:07:44.714Z,84.71
2022-10-26T01:10:11.214Z,85.09
2022-10-26T01:12:38.078Z,85.10
2022-10-26T01:15:05.048Z,84.66
2022-10-26T01:17:58.288Z,84.73
2022-10-26T01:20:46.641Z,84.50
2022-10-26T01:23:31.537Z,84.39
2022-10-26T01:26:45.719Z,84.29
2022-10-26T01:29:38.656Z,84.47
2022-10-26T01:32:11.628Z,84.75
2022-10-26T01:34:46.527Z,84.80
2022-10-26T01:37:19.688Z,84.98
2022-10-26T01:39:53.824Z,84.68
2022-10-26T01:42:21.944Z,84.83
2022-10-26T01:44:56.302Z,85.06
2022-10-26T01:47:25.448Z,84.80
2022-10-26T01:49:55.358Z,84.89
2022-10-26T01:52:21.806Z,84.84
2022-10-26T01:54:48.114Z,84.40
2022-10-26T01:57:18.885Z,84.89
2022-10-26T01:59:54.349Z,85.17
2022-10-26T02:02:39.001Z,85.07
2022-10-26T02:05:21.532Z,84.38
2022-10-26T02:07:51.071Z,84.87
2022-10-26T02:10:32.768Z,84.58
2022-10-26T02:13:14.516Z,84.38
2022-10-26T02:16:17.875Z,84.60
2022-10-26T02:18:56.335Z,84.48
2022-10-26T02:21:30.308Z,84.24
2022-10-26T02:23:59.350Z,84.21
2022-10-26T02:26:29.457Z,84.53
2022-10-26T02:29:01.780Z,84.26
2022-10-26T02:31:28.840Z,84.35
2022-10-26T02:33:57.883Z,84.39
2022-10-26T02:36:29.108Z,84.27
2022-10-26T02:38:57.093Z,84.51
2022-10-26T02:41:28.254Z,84.65
2022-10-26T02:44:02.735Z,84.64
2022-10-26T02:46:29.348Z,84.42
2022-10-26T02:48:56.448Z,84.09
2022-10-26T02:51:39.325Z,84.49
2022-10-26T02:54:14.011Z,84.00
2022-10-26T02:56:47.065Z,84.29
2022-10-26T02:59:15.182Z,84.40
2022-10-26T03:01:41.963Z,84.54
2022-10-26T03:04:08.595Z,84.33
2022-10-26T03:06:34.954Z,84.79
2022-10-26T03:09:01.288Z,84.79
2022-10-26T03:11:27.584Z,84.68
2022-10-26T03:13:54.005Z,84.65
2022-10-26T03:16:20.808Z,84.80
2022-10-26T03:18:47.160Z,84.87
2022-10-26T03:21:13.504Z,84.85
2022-10-26T03:23:39.912Z,84.60
2022-10-26T03:26:06.212Z,84.38
2022-10-26T03:28:32.530Z,84.11
2022-10-26T03:30:58.833Z,84.11
2022-10-26T03:33:27.823Z,84.45
2022-10-26T03:35:56.640Z,84.14
2022-10-26T03:38:23.472Z,84.51
2022-10-26T03:40:49.749Z,84.51
2022-10-26T03:43:16.042Z,84.49
2022-10-26T03:45:42.564Z,84.32
2022-10-26T03:48:09.074Z,84.21
2022-10-26T03:50:35.468Z,84.42
2022-10-26T03:53:01.784Z,84.32
2022-10-26T03:55:28.126Z,84.12
2022-10-26T03:57:54.498Z,84.34
2022-10-26T04:00:20.966Z,84.16
2022-10-26T04:02:55.833Z,84.30
2022-10-26T04:05:23.272Z,84.50
2022-10-26T04:07:58.082Z,83.98
2022-10-26T04:10:26.590Z,83.89
2022-10-26T04:12:53.847Z,84.00
2022-10-26T04:15:20.960Z,83.86
2022-10-26T04:17:48.067Z,84.32
2022-10-26T04:20:15.201Z,84.07
2022-10-26T04:22:41.504Z,84.27
2022-10-26T04:25:08.324Z,84.19
2022-10-26T04:27:35.460Z,84.23
2022-10-26T04:30:01.784Z,84.16
2022-10-26T04:32:28.197Z,83.93
2022-10-26T04:34:54.554Z,83.93
2022-10-26T04:37:21.069Z,83.92
2022-10-26T04:39:47.522Z,83.87
2022-10-26T04:42:13.812Z,84.21
2022-10-26T04:44:40.108Z,83.86
2022-10-26T04:47:06.421Z,83.82
2022-10-26T04:49:32.703Z,83.47
2022-10-26T04:51:59.083Z,83.71
2022-10-26T04:54:25.376Z,83.81
2022-10-26T04:56:52.000Z,84.10
2022-10-26T04:59:18.284Z,83.73
2022-10-26T05:01:44.755Z,83.86
2022-10-26T05:04:11.221Z,83.62
2022-10-26T05:06:37.504Z,83.63
2022-10-26T05:09:04.455Z,82.91
2022-10-26T05:11:30.871Z,83.14
2022-10-26T05:13:57.142Z,83.14
2022-10-26T05:16:23.441Z,82.99
2022-10-26T05:18:49.832Z,82.80
2022-10-26T05:21:19.995Z,82.59
2022-10-26T05:23:52.361Z,82.40
2022-10-26T05:26:18.728Z,81.98
2022-10-26T05:28:45.056Z,82.29
2022-10-26T05:31:11.609Z,81.77
2022-10-26T05:33:37.870Z,81.49
2022-10-26T05:36:04.513Z,81.13
2022-10-26T05:38:30.918Z,80.33
2022-10-26T05:40:57.334Z,80.15
2022-10-26T05:43:24.553Z,80.21
2022-10-26T05:45:51.513Z,80.42
2022-10-26T05:48:17.865Z,79.35
2022-10-26T05:50:44.702Z,79.10
2022-10-26T05:53:11.091Z,78.64
2022-10-26T05:55:37.794Z,78.92
2022-10-26T05:58:04.477Z,78.20
2022-10-26T06:00:31.274Z,79.46
2022-10-26T06:02:57.512Z,79.99
2022-10-26T06:05:29.253Z,80.13
2022-10-26T06:07:55.829Z,80.10
2022-10-26T06:10:22.502Z,80.40
2022-10-26T06:12:49.322Z,80.15
2022-10-26T06:15:19.920Z,79.99
2022-10-26T06:18:02.121Z,80.64
2022-10-26T06:20:37.401Z,80.51
2022-10-26T06:23:18.954Z,79.96
2022-10-26T06:26:09.705Z,80.48
2022-10-26T06:28:43.286Z,80.54
2022-10-26T06:31:13.797Z,80.50
2022-10-26T06:33:41.125Z,80.69
2022-10-26T06:36:13.493Z,79.90
2022-10-26T06:38:44.310Z,79.11
2022-10-26T06:41:15.317Z,79.81
2022-10-26T06:43:42.102Z,80.02
2022-10-26T06:46:11.089Z,80.53
2022-10-26T06:49:04.822Z,80.47
2022-10-26T06:51:33.663Z,79.89
2022-10-26T06:54:18.667Z,79.80
2022-10-26T06:56:46.053Z,79.28
2022-10-26T06:59:29.678Z,80.33
2022-10-26T07:01:56.113Z,79.84
2022-10-26T07:04:22.468Z,79.37
2022-10-26T07:06:48.815Z,79.83
2022-10-26T07:09:15.076Z,80.14
2022-10-26T07:11:41.359Z,80.51
2022-10-26T07:14:08.437Z,80.60
2022-10-26T07:16:34.762Z,80.78
2022-10-26T07:19:01.036Z,81.00
2022-10-26T07:21:27.873Z,81.08
2022-10-26T07:23:56.856Z,80.40
2022-10-26T07:26:25.490Z,80.37
2022-10-26T07:28:52.125Z,79.69
2022-10-26T07:31:18.511Z,80.17
2022-10-26T07:33:45.286Z,79.92
2022-10-26T07:36:12.280Z,80.22
2022-10-26T07:38:39.397Z,80.30
2022-10-26T07:41:06.270Z,79.83
2022-10-26T07:43:32.605Z,80.08
2022-10-26T07:45:58.925Z,80.49
2022-10-26T07:48:25.245Z,80.18
2022-10-26T07:50:51.522Z,80.49
2022-10-26T07:53:17.794Z,79.71
2022-10-26T07:55:44.077Z,79.57
2022-10-26T07:58:10.404Z,79.49
2022-10-26T08:00:36.756Z,80.06
2022-10-26T08:03:03.086Z,79.59
2022-10-26T08:05:29.385Z,79.72
2022-10-26T08:07:55.735Z,79.56
2022-10-26T08:10:22.092Z,80.12
2022-10-26T08:12:48.454Z,80.57
2022-10-26T08:15:14.741Z,80.09
2022-10-26T08:17:41.022Z,80.01
2022-10-26T08:20:08.181Z,80.72
2022-10-26T08:22:34.514Z,80.22
2022-10-26T08:25:00.813Z,79.65
2022-10-26T08:27:27.389Z,80.30
2022-10-26T08:29:53.677Z,79.10
2022-10-26T08:32:20.057Z,79.50
2022-10-26T08:34:46.425Z,78.12
2022-10-26T08:37:12.725Z,78.09
2022-10-26T08:39:39.046Z,77.84
2022-10-26T08:42:13.963Z,77.66
2022-10-26T08:44:49.916Z,77.63
2022-10-26T08:47:26.737Z,77.26
2022-10-26T08:50:02.809Z,76.88
2022-10-26T08:52:52.362Z,73.92
2022-10-26T08:55:23.591Z,74.52
2022-10-26T08:57:50.367Z,74.40
2022-10-26T09:00:27.508Z,75.60
2022-10-26T09:02:53.992Z,73.34
2022-10-26T09:05:33.427Z,74.60
2022-10-26T09:08:15.097Z,75.25
2022-10-26T09:10:56.461Z,74.80
2022-10-26T09:13:47.802Z,75.21
2022-10-26T09:16:26.426Z,75.11
2022-10-26T09:19:03.051Z,73.85
2022-10-26T09:21:43.374Z,75.77
2022-10-26T09:24:21.946Z,74.83
2022-10-26T09:26:56.706Z,74.91
2022-10-26T09:29:28.677Z,74.43
2022-10-26T09:31:57.299Z,74.14
2022-10-26T09:34:31.421Z,74.15
2022-10-26T09:36:57.785Z,74.20
2022-10-26T09:39:50.377Z,71.28
2022-10-26T09:42:21.396Z,67.58
2022-10-26T09:44:54.809Z,68.46
2022-10-26T09:47:33.249Z,67.43
2022-10-26T09:50:06.864Z,67.19
2022-10-26T09:52:33.275Z,65.50
2022-10-26T09:54:59.564Z,63.56
2022-10-26T09:57:26.256Z,62.60
2022-10-26T09:59:55.529Z,61.35
2022-10-26T10:02:36.241Z,60.14
2022-10-26T10:05:03.355Z,58.48
2022-10-26T10:07:29.665Z,56.44
2022-10-26T10:10:08.535Z,58.31
2022-10-26T10:12:34.869Z,58.63
2022-10-26T10:15:01.255Z,57.31
2022-10-26T10:17:27.712Z,53.99
2022-10-26T10:19:54.073Z,53.85
2022-10-26T10:22:25.106Z,55.01
2022-10-26T10:24:57.313Z,53.60
2022-10-26T10:27:24.779Z,55.54
2022-10-26T10:29:53.278Z,55.31
2022-10-26T10:32:22.005Z,56.24
2022-10-26T10:34:52.981Z,56.01
2022-10-26T10:37:30.462Z,53.57
2022-10-26T10:40:05.583Z,53.27
2022-10-26T10:42:35.388Z,52.35
2022-10-26T10:45:03.840Z,54.53
2022-10-26T10:47:34.741Z,52.93
2022-10-26T10:50:04.619Z,54.59
2022-10-26T10:52:33.467Z,53.15
2022-10-26T10:55:14.960Z,52.46
2022-10-26T10:57:44.185Z,52.86
2022-10-26T11:00:12.049Z,52.40
2022-10-26T11:02:57.158Z,52.64
2022-10-26T11:06:01.160Z,54.18
2022-10-26T11:08:44.400Z,55.85
2022-10-26T11:11:13.728Z,53.69
2022-10-26T11:14:02.795Z,55.85
2022-10-26T11:16:49.864Z,52.64
2022-10-26T11:19:31.336Z,53.20
2022-10-26T11:21:57.645Z,54.72
2022-10-26T11:24:34.457Z,55.52
2022-10-26T11:27:17.967Z,55.63
2022-10-26T11:29:54.878Z,58.67
2022-10-26T11:32:30.896Z,56.55
2022-10-26T11:35:35.465Z,57.60
2022-10-26T11:38:08.608Z,57.17
2022-10-26T11:41:03.828Z,57.68
2022-10-26T11:43:48.298Z,58.11
2022-10-26T11:46:21.918Z,58.73
2022-10-26T11:49:00.658Z,57.23
2022-10-26T11:51:30.104Z,59.80
2022-10-26T11:54:08.845Z,56.06
2022-10-26T11:56:41.309Z,58.67
2022-10-26T11:59:18.838Z,58.09
2022-10-26T12:01:47.728Z,56.46
2022-10-26T12:04:14.929Z,56.01
2022-10-26T12:06:41.514Z,56.97
2022-10-26T12:09:15.888Z,56.29
2022-10-26T12:12:02.739Z,56.26
2022-10-26T12:14:55.919Z,54.21
2022-10-26T12:17:31.942Z,53.43
2022-10-26T12:20:10.066Z,53.74
2022-10-26T12:22:40.364Z,52.20
2022-10-26T12:25:15.350Z,52.59
2022-10-26T12:27:41.887Z,51.96
2022-10-26T12:30:17.322Z,52.16
2022-10-26T12:32:43.904Z,51.46
2022-10-26T12:35:36.615Z,52.07
2022-10-26T12:38:29.011Z,51.44
2022-10-26T12:41:05.084Z,51.88
2022-10-26T12:43:31.420Z,53.31
2022-10-26T12:46:12.917Z,52.95
2022-10-26T12:48:41.876Z,53.90
2022-10-26T12:51:23.056Z,52.44
2022-10-26T12:53:58.429Z,53.43
2022-10-26T12:56:32.173Z,53.21
2022-10-26T12:59:12.938Z,52.79
2022-10-26T13:01:53.597Z,52.14
2022-10-26T13:04:29.945Z,51.91
2022-10-26T13:07:34.978Z,51.98
2022-10-26T13:10:05.686Z,51.95
2022-10-26T13:12:48.607Z,51.75
2022-10-26T13:15:22.743Z,52.31
2022-10-26T13:18:06.971Z,52.61
2022-10-26T13:20:35.674Z,53.04
2022-10-26T13:23:03.628Z,52.67
2022-10-26T13:25:31.651Z,53.42
2022-10-26T13:27:58.449Z,51.44
2022-10-26T13:30:33.745Z,51.13
2022-10-26T13:33:02.594Z,51.29
2022-10-26T13:35:31.170Z,49.53
2022-10-26T13:37:58.851Z,49.47
2022-10-26T13:40:27.804Z,49.58
2022-10-26T13:43:02.090Z,49.97
2022-10-26T13:45:31.654Z,49.51
2022-10-26T13:48:11.186Z,49.69
2022-10-26T13:50:51.455Z,49.30
2022-10-26T13:53:27.455Z,48.19
2022-10-26T13:56:00.941Z,48.00
2022-10-26T13:58:36.725Z,48.64
2022-10-26T14:01:16.626Z,49.56
2022-10-26T14:03:43.342Z,50.31
2022-10-26T14:06:31.810Z,49.04
2022-10-26T14:09:02.585Z,50.22
2022-10-26T14:11:47.764Z,50.23
2022-10-26T14:14:24.094Z,49.57
2022-10-26T14:16:52.312Z,49.65
2022-10-26T14:19:37.204Z,49.82
2022-10-26T14:22:04.487Z,49.92
2022-10-26T14:24:46.814Z,49.51
2022-10-26T14:27:19.985Z,49.59
2022-10-26T14:30:03.748Z,49.25
2022-10-26T14:32:33.753Z,49.21
2022-10-26T14:35:00.129Z,49.28
2022-10-26T14:37:42.918Z,50.08
2022-10-26T14:40:21.705Z,50.32
2022-10-26T14:42:54.742Z,50.67
2022-10-26T14:45:50.307Z,50.95
2022-10-26T14:48:23.830Z,54.44
2022-10-26T14:51:16.498Z,52.14
2022-10-26T14:53:49.793Z,51.75
2022-10-26T14:56:22.208Z,53.67
2022-10-26T14:58:48.769Z,52.85
2022-10-26T15:01:25.785Z,53.25
2022-10-26T15:04:06.981Z,54.16
2022-10-26T15:06:38.626Z,52.62
2022-10-26T15:09:06.716Z,54.59
2022-10-26T15:11:35.167Z,53.57
2022-10-26T15:14:02.337Z,52.89
2022-10-26T15:16:34.692Z,54.50
2022-10-26T15:19:09.735Z,53.27
2022-10-26T15:21:46.027Z,53.65
2022-10-26T15:24:26.232Z,52.87
2022-10-26T15:26:52.709Z,52.63
2022-10-26T15:29:38.465Z,54.07
2022-10-26T15:32:18.153Z,53.50
2022-10-26T15:34:49.238Z,53.75
2022-10-26T15:37:15.758Z,53.36
2022-10-26T15:39:42.200Z,56.71
2022-10-26T15:42:13.409Z,55.73
2022-10-26T15:44:39.712Z,55.09
2022-10-26T15:47:08.808Z,57.48
2022-10-26T15:49:35.346Z,57.85
2022-10-26T15:52:01.683Z,57.68
2022-10-26T15:54:28.009Z,58.95
2022-10-26T15:56:54.506Z,59.58
2022-10-26T15:59:21.371Z,59.35
2022-10-26T16:01:47.846Z,60.30
2022-10-26T16:04:14.208Z,60.83
2022-10-26T16:06:42.353Z,61.02
2022-10-26T16:09:14.379Z,60.53
2022-10-26T16:11:40.705Z,61.10
2022-10-26T16:14:07.417Z,61.95
2022-10-26T16:16:33.865Z,63.16
2022-10-26T16:19:29.289Z,63.86
2022-10-26T16:21:46.597Z,64.37
2022-10-26T16:24:12.879Z,64.81
2022-10-26T16:26:39.194Z,64.91
2022-10-26T16:29:05.488Z,65.05
2022-10-26T16:31:31.802Z,65.59
2022-10-26T16:34:01.624Z,65.25
2022-10-26T16:36:32.664Z,65.06
2022-10-26T16:38:58.990Z,65.96
2022-10-26T16:43:56.672Z,66.42
2022-10-26T16:46:23.689Z,67.03
2022-10-26T16:48:51.022Z,66.57
2022-10-26T16:51:23.940Z,66.06
2022-10-26T16:53:52.652Z,65.49
2022-10-26T16:56:24.018Z,64.73
2022-10-26T16:58:50.409Z,63.65
2022-10-26T17:01:18.860Z,64.67
2022-10-26T17:03:46.403Z,66.77
2022-10-26T17:06:13.144Z,66.28
2022-10-26T17:08:39.933Z,67.36
2022-10-26T17:11:09.081Z,68.26
2022-10-26T17:13:36.541Z,67.42
2022-10-26T17:16:09.684Z,66.78
2022-10-26T17:18:36.053Z,68.07
2022-10-26T17:21:02.341Z,68.99
2022-10-26T17:23:28.636Z,68.88
2022-10-26T17:25:54.928Z,69.56
2022-10-26T17:28:21.315Z,69.99
2022-10-26T17:30:47.687Z,69.66
2022-10-26T17:33:14.116Z,68.88
2022-10-26T17:35:40.445Z,69.95
2022-10-26T17:38:06.752Z,69.92
2022-10-26T17:40:33.133Z,70.35
2022-10-26T17:43:00.205Z,69.99
2022-10-26T17:45:26.921Z,71.69
2022-10-26T17:47:53.431Z,71.56
2022-10-26T17:50:19.997Z,71.85
2022-10-26T17:52:46.313Z,71.93
2022-10-26T17:55:12.622Z,72.15
2022-10-26T17:57:38.985Z,72.15
2022-10-26T18:00:06.232Z,72.15
2022-10-26T18:02:37.168Z,72.96
2022-10-26T18:05:06.914Z,72.70
2022-10-26T18:07:34.419Z,72.18
2022-10-26T18:10:13.731Z,73.05
2022-10-26T18:12:47.109Z,72.37
2022-10-26T18:15:13.496Z,72.59
2022-10-26T18:17:41.465Z,73.12
2022-10-26T18:20:08.933Z,72.65
2022-10-26T18:22:35.239Z,73.00
2022-10-26T18:25:01.513Z,73.13
2022-10-26T18:27:28.109Z,73.71
2022-10-26T18:29:54.412Z,73.28
2022-10-26T18:32:21.092Z,73.69
2022-10-26T18:34:47.860Z,74.45
2022-10-26T18:37:14.154Z,74.29
2022-10-26T18:39:40.427Z,74.97
2022-10-26T18:42:06.725Z,74.79
2022-10-26T18:44:33.029Z,75.10
2022-10-26T18:46:59.304Z,75.22
2022-10-26T18:49:26.561Z,75.57
2022-10-26T18:51:52.882Z,75.12
2022-10-26T18:54:19.200Z,75.76
2022-10-26T18:56:45.517Z,75.71
2022-10-26T18:59:12.897Z,75.94
2022-10-26T19:01:41.950Z,76.15
2022-10-26T19:04:10.549Z,76.54
2022-10-26T19:06:44.995Z,76.76
2022-10-26T19:09:11.316Z,77.39
2022-10-26T19:11:38.258Z,77.33
2022-10-26T19:14:05.195Z,77.72
2022-10-26T19:16:45.502Z,77.63
2022-10-26T19:19:12.901Z,77.89
2022-10-26T19:21:39.244Z,77.38
2022-10-26T19:24:12.217Z,77.52
2022-10-26T19:26:42.351Z,77.63
2022-10-26T19:29:13.705Z,77.37
2022-10-26T19:31:40.653Z,77.88
2022-10-26T19:34:07.205Z,77.85
2022-10-26T19:36:34.042Z,78.28
2022-10-26T19:39:00.589Z,78.37
2022-10-26T19:41:28.125Z,78.28
2022-10-26T19:43:55.610Z,78.85
2022-10-26T19:46:27.658Z,78.54
2022-10-26T19:49:01.213Z,78.76
2022-10-26T19:51:30.060Z,79.09
2022-10-26T19:54:02.190Z,78.72
2022-10-26T19:56:29.978Z,78.79
2022-10-26T19:58:56.324Z,79.00
2022-10-26T20:01:22.868Z,79.34
2022-10-26T20:03:49.251Z,79.01
2022-10-26T20:06:16.052Z,79.51
2022-10-26T20:08:45.053Z,79.51
2022-10-26T20:11:14.828Z,79.49
2022-10-26T20:13:43.574Z,79.88
2022-10-26T20:16:10.683Z,80.44
2022-10-26T20:18:37.080Z,80.29
2022-10-26T20:21:10.956Z,81.04
2022-10-26T20:23:37.599Z,80.90
2022-10-26T20:26:03.984Z,81.42
2022-10-26T20:28:30.860Z,81.47
2022-10-26T20:30:59.289Z,81.27
2022-10-26T20:33:26.475Z,81.90
2022-10-26T20:35:58.574Z,81.96
2022-10-26T20:38:25.517Z,82.35
2022-10-26T20:40:57.044Z,82.36
2022-10-26T20:43:24.048Z,82.38
2022-10-26T20:45:50.908Z,82.21
2022-10-26T20:48:17.881Z,82.44
2022-10-26T20:50:52.318Z,82.47
2022-10-26T20:53:42.480Z,82.46
2022-10-26T20:56:21.781Z,83.00
2022-10-26T20:58:53.241Z,83.00
2022-10-26T21:01:31.494Z,82.88
2022-10-26T21:04:00.181Z,82.84
2022-10-26T21:06:27.256Z,82.81
2022-10-26T21:08:55.828Z,82.87
2022-10-26T21:11:23.913Z,82.63
2022-10-26T21:13:52.541Z,82.92
2022-10-26T21:16:19.092Z,83.19
2022-10-26T21:18:45.728Z,83.26
2022-10-26T21:21:12.032Z,83.66
2022-10-26T21:23:40.418Z,83.77
2022-10-26T21:26:08.197Z,83.93
2022-10-26T21:28:45.565Z,83.92
2022-10-26T21:31:14.861Z,83.81
2022-10-26T21:33:41.669Z,84.09
2022-10-26T21:36:12.002Z,84.48
2022-10-26T21:38:39.449Z,84.56
2022-10-26T21:41:11.233Z,84.29
2022-10-26T21:43:39.498Z,84.34
2022-10-26T21:46:07.678Z,84.38
2022-10-26T21:48:34.566Z,84.45
2022-10-26T21:51:02.220Z,84.87
2022-10-26T21:53:28.891Z,84.95
2022-10-26T21:56:06.246Z,85.33
2022-10-26T21:58:32.534Z,85.52
2022-10-26T22:01:13.090Z,85.12
2022-10-26T22:03:40.312Z,85.23
2022-10-26T22:06:08.418Z,85.34
2022-10-26T22:08:35.972Z,85.39
2022-10-26T22:11:12.985Z,85.38
2022-10-26T22:13:42.118Z,85.56
2022-10-26T22:16:13.691Z,85.54
2022-10-26T22:18:42.174Z,85.59
2022-10-26T22:21:08.981Z,85.75
2022-10-26T22:23:38.201Z,86.17
2022-10-26T22:26:06.518Z,86.01
2022-10-26T22:28:38.510Z,86.23
2022-10-26T22:31:14.799Z,86.02
2022-10-26T22:33:41.620Z,86.14
2022-10-26T22:36:14.040Z,86.42
2022-10-26T22:38:41.516Z,86.61
2022-10-26T22:41:09.370Z,86.67
2022-10-26T22:43:35.855Z,86.94
2022-10-26T22:46:07.248Z,86.99
2022-10-26T22:48:34.449Z,87.27
2022-10-26T22:51:08.958Z,87.50
2022-10-26T22:53:35.300Z,87.52
2022-10-26T22:56:02.348Z,87.59
2022-10-26T22:58:28.692Z,87.34
2022-10-26T23:01:05.263Z,87.72
2022-10-26T23:03:31.972Z,87.94
2022-10-26T23:05:59.137Z,87.97
2022-10-26T23:08:25.935Z,88.20
2022-10-26T23:10:52.481Z,88.50
2022-10-26T23:13:18.843Z,88.54
2022-10-26T23:15:45.139Z,88.64
2022-10-26T23:18:11.412Z,88.57
2022-10-26T23:20:37.784Z,88.90
2022-10-26T23:23:04.121Z,89.14
2022-10-26T23:25:30.523Z,89.11
2022-10-26T23:27:56.794Z,88.98
2022-10-26T23:30:23.170Z,89.04
2022-10-26T23:32:49.966Z,88.90
2022-10-26T23:35:16.676Z,88.95
2022-10-26T23:37:42.965Z,89.11
2022-10-26T23:40:10.157Z,88.95
2022-10-26T23:42:36.451Z,89.01
2022-10-26T23:45:02.834Z,88.67
2022-10-26T23:47:29.276Z,88.72
2022-10-26T23:49:55.577Z,88.96
2022-10-26T23:52:21.856Z,89.06
2022-10-26T23:57:15.430Z,89.40
2022-10-26T23:59:41.750Z,89.42
